sensor_id;sensor_type;location;lat;lon;timestamp;P1;durP1;ratioP1;P2;durP2;ratioP2
6937;SDS011;40040;42.706;23.372;2023-12-22T00:01:35;130.00;;;50.43;;
6937;SDS011;40040;42.706;23.372;2023-12-22T00:04:02;127.93;;;49.73;;
6937;SDS011;40040;42.706;23.372;2023-12-22T00:06:31;135.93;;;51.23;;
6937;SDS011;40040;42.706;23.372;2023-12-22T00:08:59;140.63;;;54.30;;
6937;SDS011;40040;42.706;23.372;2023-12-22T00:11:26;147.13;;;52.70;;
6937;SDS011;40040;42.706;23.372;2023-12-22T00:13:52;158.03;;;54.20;;
6937;SDS011;40040;42.706;23.372;2023-12-22T00:16:19;125.13;;;48.07;;
6937;SDS011;40040;42.706;23.372;2023-12-22T00:18:46;112.73;;;43.27;;
6937;SDS011;40040;42.706;23.372;2023-12-22T00:21:13;111.80;;;42.97;;
6937;SDS011;40040;42.706;23.372;2023-12-22T00:23:40;125.27;;;49.03;;
6937;SDS011;40040;42.706;23.372;2023-12-22T00:26:08;108.03;;;42.27;;
6937;SDS011;40040;42.706;23.372;2023-12-22T00:28:34;90.97;;;34.80;;
6937;SDS011;40040;42.706;23.372;2023-12-22T00:31:01;78.77;;;32.83;;
6937;SDS011;40040;42.706;23.372;2023-12-22T00:33:28;62.57;;;29.17;;
6937;SDS011;40040;42.706;23.372;2023-12-22T00:35:55;57.87;;;27.70;;
6937;SDS011;40040;42.706;23.372;2023-12-22T00:38:22;63.47;;;28.50;;
6937;SDS011;40040;42.706;23.372;2023-12-22T00:40:49;56.13;;;26.20;;
6937;SDS011;40040;42.706;23.372;2023-12-22T00:43:17;57.13;;;25.53;;
6937;SDS011;40040;42.706;23.372;2023-12-22T00:45:43;66.83;;;29.20;;
6937;SDS011;40040;42.706;23.372;2023-12-22T00:48:10;52.20;;;24.87;;
6937;SDS011;40040;42.706;23.372;2023-12-22T00:50:37;53.17;;;23.57;;
6937;SDS011;40040;42.706;23.372;2023-12-22T00:53:04;59.27;;;26.27;;
6937;SDS011;40040;42.706;23.372;2023-12-22T00:55:31;88.87;;;36.03;;
6937;SDS011;40040;42.706;23.372;2023-12-22T00:57:57;71.57;;;32.90;;
6937;SDS011;40040;42.706;23.372;2023-12-22T01:00:26;62.50;;;29.57;;
6937;SDS011;40040;42.706;23.372;2023-12-22T01:02:52;57.23;;;26.00;;
6937;SDS011;40040;42.706;23.372;2023-12-22T01:05:20;53.20;;;22.13;;
6937;SDS011;40040;42.706;23.372;2023-12-22T01:07:47;43.43;;;21.80;;
6937;SDS011;40040;42.706;23.372;2023-12-22T01:10:14;40.53;;;20.37;;
6937;SDS011;40040;42.706;23.372;2023-12-22T01:12:40;44.90;;;20.50;;
6937;SDS011;40040;42.706;23.372;2023-12-22T01:15:07;42.67;;;20.10;;
6937;SDS011;40040;42.706;23.372;2023-12-22T01:17:36;47.43;;;20.90;;
6937;SDS011;40040;42.706;23.372;2023-12-22T01:20:03;39.10;;;20.33;;
6937;SDS011;40040;42.706;23.372;2023-12-22T01:22:30;39.77;;;19.30;;
6937;SDS011;40040;42.706;23.372;2023-12-22T01:24:58;39.57;;;19.17;;
6937;SDS011;40040;42.706;23.372;2023-12-22T01:27:26;36.33;;;18.30;;
6937;SDS011;40040;42.706;23.372;2023-12-22T01:29:53;34.80;;;17.67;;
6937;SDS011;40040;42.706;23.372;2023-12-22T01:32:20;38.43;;;17.93;;
6937;SDS011;40040;42.706;23.372;2023-12-22T01:34:48;35.90;;;18.53;;
6937;SDS011;40040;42.706;23.372;2023-12-22T01:37:15;38.20;;;17.20;;
6937;SDS011;40040;42.706;23.372;2023-12-22T01:39:42;41.73;;;20.43;;
6937;SDS011;40040;42.706;23.372;2023-12-22T01:42:09;46.80;;;22.73;;
6937;SDS011;40040;42.706;23.372;2023-12-22T01:44:36;43.97;;;21.57;;
6937;SDS011;40040;42.706;23.372;2023-12-22T01:47:03;55.07;;;23.00;;
6937;SDS011;40040;42.706;23.372;2023-12-22T01:49:30;49.57;;;21.57;;
6937;SDS011;40040;42.706;23.372;2023-12-22T01:51:59;64.53;;;28.53;;
6937;SDS011;40040;42.706;23.372;2023-12-22T01:54:25;75.40;;;30.47;;
6937;SDS011;40040;42.706;23.372;2023-12-22T01:56:53;54.17;;;24.80;;
6937;SDS011;40040;42.706;23.372;2023-12-22T01:59:21;40.97;;;18.57;;
6937;SDS011;40040;42.706;23.372;2023-12-22T02:01:48;38.47;;;19.03;;
6937;SDS011;40040;42.706;23.372;2023-12-22T02:04:15;29.10;;;15.40;;
6937;SDS011;40040;42.706;23.372;2023-12-22T02:06:42;34.10;;;16.53;;
6937;SDS011;40040;42.706;23.372;2023-12-22T02:09:10;37.90;;;17.70;;
6937;SDS011;40040;42.706;23.372;2023-12-22T02:11:37;28.97;;;15.23;;
6937;SDS011;40040;42.706;23.372;2023-12-22T02:14:05;37.80;;;17.67;;
6937;SDS011;40040;42.706;23.372;2023-12-22T02:16:35;33.50;;;15.93;;
6937;SDS011;40040;42.706;23.372;2023-12-22T02:19:09;29.53;;;15.20;;
6937;SDS011;40040;42.706;23.372;2023-12-22T02:22:01;30.87;;;15.17;;
6937;SDS011;40040;42.706;23.372;2023-12-22T02:24:30;31.03;;;14.73;;
6937;SDS011;40040;42.706;23.372;2023-12-22T02:26:59;35.67;;;15.77;;
6937;SDS011;40040;42.706;23.372;2023-12-22T02:29:30;30.93;;;14.07;;
6937;SDS011;40040;42.706;23.372;2023-12-22T02:32:02;31.17;;;14.57;;
6937;SDS011;40040;42.706;23.372;2023-12-22T02:34:32;32.30;;;14.80;;
6937;SDS011;40040;42.706;23.372;2023-12-22T02:37:03;34.17;;;14.70;;
6937;SDS011;40040;42.706;23.372;2023-12-22T02:39:33;28.93;;;13.80;;
6937;SDS011;40040;42.706;23.372;2023-12-22T02:42:01;26.80;;;13.77;;
6937;SDS011;40040;42.706;23.372;2023-12-22T02:44:28;27.63;;;12.23;;
6937;SDS011;40040;42.706;23.372;2023-12-22T02:46:55;24.90;;;11.97;;
6937;SDS011;40040;42.706;23.372;2023-12-22T02:49:22;201.27;;;54.77;;
6937;SDS011;40040;42.706;23.372;2023-12-22T02:51:49;35.47;;;15.90;;
6937;SDS011;40040;42.706;23.372;2023-12-22T02:54:16;33.80;;;15.93;;
6937;SDS011;40040;42.706;23.372;2023-12-22T02:56:46;33.63;;;14.90;;
6937;SDS011;40040;42.706;23.372;2023-12-22T02:59:13;31.87;;;14.77;;
6937;SDS011;40040;42.706;23.372;2023-12-22T03:01:40;34.93;;;15.43;;
6937;SDS011;40040;42.706;23.372;2023-12-22T03:04:07;41.57;;;17.33;;
6937;SDS011;40040;42.706;23.372;2023-12-22T03:06:34;33.73;;;15.27;;
6937;SDS011;40040;42.706;23.372;2023-12-22T03:09:00;39.70;;;17.33;;
6937;SDS011;40040;42.706;23.372;2023-12-22T03:11:27;36.03;;;17.30;;
6937;SDS011;40040;42.706;23.372;2023-12-22T03:13:56;36.63;;;17.07;;
6937;SDS011;40040;42.706;23.372;2023-12-22T03:16:22;37.60;;;17.47;;
6937;SDS011;40040;42.706;23.372;2023-12-22T03:18:49;36.67;;;17.23;;
6937;SDS011;40040;42.706;23.372;2023-12-22T03:21:16;30.23;;;15.40;;
6937;SDS011;40040;42.706;23.372;2023-12-22T03:23:45;36.47;;;15.77;;
6937;SDS011;40040;42.706;23.372;2023-12-22T03:26:11;32.87;;;15.20;;
6937;SDS011;40040;42.706;23.372;2023-12-22T03:28:38;28.57;;;13.53;;
6937;SDS011;40040;42.706;23.372;2023-12-22T03:31:06;27.77;;;14.43;;
6937;SDS011;40040;42.706;23.372;2023-12-22T03:33:33;33.50;;;15.47;;
6937;SDS011;40040;42.706;23.372;2023-12-22T03:36:00;30.10;;;15.13;;
6937;SDS011;40040;42.706;23.372;2023-12-22T03:38:27;31.13;;;16.40;;
6937;SDS011;40040;42.706;23.372;2023-12-22T03:40:54;31.30;;;14.20;;
6937;SDS011;40040;42.706;23.372;2023-12-22T03:43:21;36.27;;;17.13;;
6937;SDS011;40040;42.706;23.372;2023-12-22T03:45:47;32.10;;;14.67;;
6937;SDS011;40040;42.706;23.372;2023-12-22T03:48:16;30.97;;;14.63;;
6937;SDS011;40040;42.706;23.372;2023-12-22T03:50:42;29.40;;;15.93;;
6937;SDS011;40040;42.706;23.372;2023-12-22T03:53:09;31.30;;;14.73;;
6937;SDS011;40040;42.706;23.372;2023-12-22T03:55:36;31.07;;;14.53;;
6937;SDS011;40040;42.706;23.372;2023-12-22T03:58:03;37.60;;;18.77;;
6937;SDS011;40040;42.706;23.372;2023-12-22T04:00:30;30.87;;;16.37;;
6937;SDS011;40040;42.706;23.372;2023-12-22T04:02:57;38.30;;;21.07;;
6937;SDS011;40040;42.706;23.372;2023-12-22T04:05:25;37.33;;;20.03;;
6937;SDS011;40040;42.706;23.372;2023-12-22T04:07:52;31.67;;;15.60;;
6937;SDS011;40040;42.706;23.372;2023-12-22T04:10:19;39.93;;;19.90;;
6937;SDS011;40040;42.706;23.372;2023-12-22T04:12:46;68.17;;;32.07;;
6937;SDS011;40040;42.706;23.372;2023-12-22T04:15:13;51.33;;;23.63;;
6937;SDS011;40040;42.706;23.372;2023-12-22T04:17:39;50.03;;;23.63;;
6937;SDS011;40040;42.706;23.372;2023-12-22T04:20:07;31.33;;;16.83;;
6937;SDS011;40040;42.706;23.372;2023-12-22T04:22:35;36.63;;;17.73;;
6937;SDS011;40040;42.706;23.372;2023-12-22T04:25:02;37.17;;;18.57;;
6937;SDS011;40040;42.706;23.372;2023-12-22T04:27:29;39.03;;;17.57;;
6937;SDS011;40040;42.706;23.372;2023-12-22T04:29:56;41.63;;;18.50;;
6937;SDS011;40040;42.706;23.372;2023-12-22T04:32:23;41.17;;;19.40;;
6937;SDS011;40040;42.706;23.372;2023-12-22T04:34:49;35.17;;;18.50;;
6937;SDS011;40040;42.706;23.372;2023-12-22T04:37:16;34.90;;;18.47;;
6937;SDS011;40040;42.706;23.372;2023-12-22T04:39:44;33.03;;;17.23;;
6937;SDS011;40040;42.706;23.372;2023-12-22T04:42:11;39.07;;;17.53;;
6937;SDS011;40040;42.706;23.372;2023-12-22T04:44:38;35.37;;;17.80;;
6937;SDS011;40040;42.706;23.372;2023-12-22T04:47:05;41.60;;;20.30;;
6937;SDS011;40040;42.706;23.372;2023-12-22T04:49:32;51.97;;;23.23;;
6937;SDS011;40040;42.706;23.372;2023-12-22T04:51:59;41.87;;;22.23;;
6937;SDS011;40040;42.706;23.372;2023-12-22T04:54:26;42.70;;;20.70;;
6937;SDS011;40040;42.706;23.372;2023-12-22T04:56:54;43.83;;;21.30;;
6937;SDS011;40040;42.706;23.372;2023-12-22T04:59:21;42.10;;;21.43;;
6937;SDS011;40040;42.706;23.372;2023-12-22T05:01:47;89.73;;;37.17;;
6937;SDS011;40040;42.706;23.372;2023-12-22T05:04:14;83.40;;;33.50;;
6937;SDS011;40040;42.706;23.372;2023-12-22T05:06:42;145.77;;;49.73;;
6937;SDS011;40040;42.706;23.372;2023-12-22T05:09:10;111.73;;;44.27;;
6937;SDS011;40040;42.706;23.372;2023-12-22T05:11:37;90.27;;;40.50;;
6937;SDS011;40040;42.706;23.372;2023-12-22T05:14:05;95.07;;;40.13;;
6937;SDS011;40040;42.706;23.372;2023-12-22T05:16:32;77.57;;;35.63;;
6937;SDS011;40040;42.706;23.372;2023-12-22T05:18:59;65.70;;;32.40;;
6937;SDS011;40040;42.706;23.372;2023-12-22T05:21:26;68.40;;;32.23;;
6937;SDS011;40040;42.706;23.372;2023-12-22T05:23:53;66.43;;;32.93;;
6937;SDS011;40040;42.706;23.372;2023-12-22T05:26:20;82.70;;;36.70;;
6937;SDS011;40040;42.706;23.372;2023-12-22T05:28:48;68.63;;;34.10;;
6937;SDS011;40040;42.706;23.372;2023-12-22T05:31:17;92.73;;;44.07;;
6937;SDS011;40040;42.706;23.372;2023-12-22T05:33:44;87.77;;;42.03;;
6937;SDS011;40040;42.706;23.372;2023-12-22T05:36:11;80.87;;;40.53;;
6937;SDS011;40040;42.706;23.372;2023-12-22T05:38:38;76.10;;;35.80;;
6937;SDS011;40040;42.706;23.372;2023-12-22T05:41:05;89.27;;;41.57;;
6937;SDS011;40040;42.706;23.372;2023-12-22T05:43:32;82.90;;;39.50;;
6937;SDS011;40040;42.706;23.372;2023-12-22T05:45:59;78.47;;;35.57;;
6937;SDS011;40040;42.706;23.372;2023-12-22T05:48:27;89.77;;;38.73;;
6937;SDS011;40040;42.706;23.372;2023-12-22T05:50:55;81.40;;;36.60;;
6937;SDS011;40040;42.706;23.372;2023-12-22T05:53:22;96.53;;;42.83;;
6937;SDS011;40040;42.706;23.372;2023-12-22T05:55:49;92.90;;;42.93;;
6937;SDS011;40040;42.706;23.372;2023-12-22T05:58:16;87.97;;;40.17;;
6937;SDS011;40040;42.706;23.372;2023-12-22T06:00:43;86.67;;;39.13;;
6937;SDS011;40040;42.706;23.372;2023-12-22T06:03:09;86.73;;;38.20;;
6937;SDS011;40040;42.706;23.372;2023-12-22T06:05:38;91.87;;;40.23;;
6937;SDS011;40040;42.706;23.372;2023-12-22T06:08:05;95.47;;;41.30;;
6937;SDS011;40040;42.706;23.372;2023-12-22T06:10:32;92.10;;;40.77;;
6937;SDS011;40040;42.706;23.372;2023-12-22T06:12:59;90.53;;;42.17;;
6937;SDS011;40040;42.706;23.372;2023-12-22T06:15:28;88.60;;;38.03;;
6937;SDS011;40040;42.706;23.372;2023-12-22T06:17:55;89.57;;;37.53;;
6937;SDS011;40040;42.706;23.372;2023-12-22T06:20:23;67.27;;;30.67;;
6937;SDS011;40040;42.706;23.372;2023-12-22T06:22:51;86.03;;;40.67;;
6937;SDS011;40040;42.706;23.372;2023-12-22T06:25:18;91.23;;;40.63;;
6937;SDS011;40040;42.706;23.372;2023-12-22T06:27:45;77.20;;;31.37;;
6937;SDS011;40040;42.706;23.372;2023-12-22T06:30:12;75.97;;;32.13;;
6937;SDS011;40040;42.706;23.372;2023-12-22T06:32:39;87.33;;;36.53;;
6937;SDS011;40040;42.706;23.372;2023-12-22T06:35:07;84.90;;;35.60;;
6937;SDS011;40040;42.706;23.372;2023-12-22T06:37:36;103.90;;;37.50;;
6937;SDS011;40040;42.706;23.372;2023-12-22T06:40:05;122.93;;;47.43;;
6937;SDS011;40040;42.706;23.372;2023-12-22T06:42:32;125.60;;;51.03;;
6937;SDS011;40040;42.706;23.372;2023-12-22T06:44:59;136.47;;;55.90;;
6937;SDS011;40040;42.706;23.372;2023-12-22T06:47:26;114.10;;;48.47;;
6937;SDS011;40040;42.706;23.372;2023-12-22T06:49:53;136.07;;;52.33;;
6937;SDS011;40040;42.706;23.372;2023-12-22T06:52:20;150.47;;;53.30;;
6937;SDS011;40040;42.706;23.372;2023-12-22T06:54:46;133.40;;;52.03;;
6937;SDS011;40040;42.706;23.372;2023-12-22T06:57:14;137.63;;;53.57;;
6937;SDS011;40040;42.706;23.372;2023-12-22T06:59:42;158.47;;;60.93;;
6937;SDS011;40040;42.706;23.372;2023-12-22T07:02:09;143.63;;;57.30;;
6937;SDS011;40040;42.706;23.372;2023-12-22T07:04:35;115.87;;;49.13;;
6937;SDS011;40040;42.706;23.372;2023-12-22T07:07:02;109.10;;;45.97;;
6937;SDS011;40040;42.706;23.372;2023-12-22T07:09:30;119.53;;;50.63;;
6937;SDS011;40040;42.706;23.372;2023-12-22T07:11:57;148.97;;;57.13;;
6937;SDS011;40040;42.706;23.372;2023-12-22T07:14:25;131.13;;;51.40;;
6937;SDS011;40040;42.706;23.372;2023-12-22T07:16:53;117.47;;;46.97;;
6937;SDS011;40040;42.706;23.372;2023-12-22T07:19:20;83.27;;;39.53;;
6937;SDS011;40040;42.706;23.372;2023-12-22T07:21:47;85.10;;;39.30;;
6937;SDS011;40040;42.706;23.372;2023-12-22T07:24:14;83.97;;;39.83;;
6937;SDS011;40040;42.706;23.372;2023-12-22T07:26:41;108.87;;;45.43;;
6937;SDS011;40040;42.706;23.372;2023-12-22T07:29:17;96.80;;;41.47;;
6937;SDS011;40040;42.706;23.372;2023-12-22T07:32:08;113.63;;;46.37;;
6937;SDS011;40040;42.706;23.372;2023-12-22T07:34:35;98.90;;;43.17;;
6937;SDS011;40040;42.706;23.372;2023-12-22T07:37:02;121.03;;;47.57;;
6937;SDS011;40040;42.706;23.372;2023-12-22T07:39:30;136.37;;;53.90;;
6937;SDS011;40040;42.706;23.372;2023-12-22T07:41:57;137.23;;;55.63;;
6937;SDS011;40040;42.706;23.372;2023-12-22T07:44:23;110.10;;;49.10;;
6937;SDS011;40040;42.706;23.372;2023-12-22T07:46:57;153.70;;;58.50;;
6937;SDS011;40040;42.706;23.372;2023-12-22T07:49:24;263.37;;;98.87;;
6937;SDS011;40040;42.706;23.372;2023-12-22T07:51:52;180.10;;;66.60;;
6937;SDS011;40040;42.706;23.372;2023-12-22T07:54:19;165.67;;;61.33;;
6937;SDS011;40040;42.706;23.372;2023-12-22T07:56:46;162.07;;;66.63;;
6937;SDS011;40040;42.706;23.372;2023-12-22T07:59:13;187.60;;;79.87;;
6937;SDS011;40040;42.706;23.372;2023-12-22T08:01:40;184.63;;;79.50;;
6937;SDS011;40040;42.706;23.372;2023-12-22T08:04:08;158.13;;;68.60;;
6937;SDS011;40040;42.706;23.372;2023-12-22T08:06:35;233.90;;;93.57;;
6937;SDS011;40040;42.706;23.372;2023-12-22T08:09:02;199.43;;;84.13;;
6937;SDS011;40040;42.706;23.372;2023-12-22T08:11:29;211.20;;;88.33;;
6937;SDS011;40040;42.706;23.372;2023-12-22T08:13:56;276.07;;;112.10;;
6937;SDS011;40040;42.706;23.372;2023-12-22T08:16:23;230.77;;;92.43;;
6937;SDS011;40040;42.706;23.372;2023-12-22T08:18:49;207.03;;;88.63;;
6937;SDS011;40040;42.706;23.372;2023-12-22T08:21:19;170.50;;;72.37;;
6937;SDS011;40040;42.706;23.372;2023-12-22T08:23:46;224.27;;;90.80;;
6937;SDS011;40040;42.706;23.372;2023-12-22T08:26:13;176.20;;;73.53;;
6937;SDS011;40040;42.706;23.372;2023-12-22T08:28:42;181.83;;;75.20;;
6937;SDS011;40040;42.706;23.372;2023-12-22T08:31:09;188.73;;;74.60;;
6937;SDS011;40040;42.706;23.372;2023-12-22T08:33:37;190.37;;;80.10;;
6937;SDS011;40040;42.706;23.372;2023-12-22T08:36:07;223.13;;;89.33;;
6937;SDS011;40040;42.706;23.372;2023-12-22T08:38:35;195.40;;;80.67;;
6937;SDS011;40040;42.706;23.372;2023-12-22T08:41:04;206.03;;;83.37;;
6937;SDS011;40040;42.706;23.372;2023-12-22T08:43:31;190.83;;;80.73;;
6937;SDS011;40040;42.706;23.372;2023-12-22T08:45:58;221.27;;;92.20;;
6937;SDS011;40040;42.706;23.372;2023-12-22T08:48:25;239.10;;;102.53;;
6937;SDS011;40040;42.706;23.372;2023-12-22T08:50:51;279.73;;;109.93;;
6937;SDS011;40040;42.706;23.372;2023-12-22T08:53:18;265.80;;;103.70;;
6937;SDS011;40040;42.706;23.372;2023-12-22T08:55:47;220.43;;;87.97;;
6937;SDS011;40040;42.706;23.372;2023-12-22T08:58:13;210.47;;;88.90;;
6937;SDS011;40040;42.706;23.372;2023-12-22T09:00:40;222.80;;;95.67;;
6937;SDS011;40040;42.706;23.372;2023-12-22T09:03:09;257.17;;;105.60;;
6937;SDS011;40040;42.706;23.372;2023-12-22T09:05:36;257.80;;;107.17;;
6937;SDS011;40040;42.706;23.372;2023-12-22T09:08:03;238.70;;;102.23;;
6937;SDS011;40040;42.706;23.372;2023-12-22T09:10:31;217.77;;;86.90;;
6937;SDS011;40040;42.706;23.372;2023-12-22T09:12:59;207.67;;;82.93;;
6937;SDS011;40040;42.706;23.372;2023-12-22T09:15:26;125.50;;;53.13;;
6937;SDS011;40040;42.706;23.372;2023-12-22T09:17:53;71.57;;;34.77;;
6937;SDS011;40040;42.706;23.372;2023-12-22T09:20:21;52.57;;;27.10;;
6937;SDS011;40040;42.706;23.372;2023-12-22T09:22:48;49.63;;;24.00;;
6937;SDS011;40040;42.706;23.372;2023-12-22T09:25:15;48.07;;;24.87;;
6937;SDS011;40040;42.706;23.372;2023-12-22T09:27:42;41.40;;;22.17;;
6937;SDS011;40040;42.706;23.372;2023-12-22T09:30:10;56.23;;;26.40;;
6937;SDS011;40040;42.706;23.372;2023-12-22T09:32:37;36.67;;;17.67;;
6937;SDS011;40040;42.706;23.372;2023-12-22T09:35:04;36.63;;;17.80;;
6937;SDS011;40040;42.706;23.372;2023-12-22T09:37:32;41.27;;;19.83;;
6937;SDS011;40040;42.706;23.372;2023-12-22T09:39:59;41.13;;;21.50;;
6937;SDS011;40040;42.706;23.372;2023-12-22T09:42:26;50.10;;;26.77;;
6937;SDS011;40040;42.706;23.372;2023-12-22T09:44:53;46.73;;;24.23;;
6937;SDS011;40040;42.706;23.372;2023-12-22T09:47:26;53.33;;;27.17;;
6937;SDS011;40040;42.706;23.372;2023-12-22T09:49:56;45.53;;;22.87;;
6937;SDS011;40040;42.706;23.372;2023-12-22T09:52:24;50.00;;;24.37;;
6937;SDS011;40040;42.706;23.372;2023-12-22T09:54:53;43.17;;;21.90;;
6937;SDS011;40040;42.706;23.372;2023-12-22T09:57:21;53.13;;;26.67;;
6937;SDS011;40040;42.706;23.372;2023-12-22T09:59:51;67.13;;;32.77;;
6937;SDS011;40040;42.706;23.372;2023-12-22T10:02:18;68.40;;;34.33;;
6937;SDS011;40040;42.706;23.372;2023-12-22T10:04:47;57.57;;;28.97;;
6937;SDS011;40040;42.706;23.372;2023-12-22T10:07:14;57.33;;;31.73;;
6937;SDS011;40040;42.706;23.372;2023-12-22T10:09:43;55.23;;;28.33;;
6937;SDS011;40040;42.706;23.372;2023-12-22T10:12:13;53.50;;;28.57;;
6937;SDS011;40040;42.706;23.372;2023-12-22T10:14:41;48.47;;;25.00;;
6937;SDS011;40040;42.706;23.372;2023-12-22T10:17:09;41.57;;;22.43;;
6937;SDS011;40040;42.706;23.372;2023-12-22T10:19:35;45.67;;;24.07;;
6937;SDS011;40040;42.706;23.372;2023-12-22T10:22:04;49.53;;;25.63;;
6937;SDS011;40040;42.706;23.372;2023-12-22T10:24:37;116.77;;;48.37;;
6937;SDS011;40040;42.706;23.372;2023-12-22T10:27:05;163.77;;;65.97;;
6937;SDS011;40040;42.706;23.372;2023-12-22T10:29:32;119.83;;;51.33;;
6937;SDS011;40040;42.706;23.372;2023-12-22T10:32:00;89.80;;;41.53;;
6937;SDS011;40040;42.706;23.372;2023-12-22T10:34:28;80.40;;;35.80;;
6937;SDS011;40040;42.706;23.372;2023-12-22T10:36:55;68.20;;;33.70;;
6937;SDS011;40040;42.706;23.372;2023-12-22T10:39:24;46.33;;;24.03;;
6937;SDS011;40040;42.706;23.372;2023-12-22T10:41:55;33.97;;;19.10;;
6937;SDS011;40040;42.706;23.372;2023-12-22T10:44:23;34.67;;;18.93;;
6937;SDS011;40040;42.706;23.372;2023-12-22T10:46:50;31.60;;;18.40;;
6937;SDS011;40040;42.706;23.372;2023-12-22T10:49:18;31.37;;;18.20;;
6937;SDS011;40040;42.706;23.372;2023-12-22T10:51:46;32.43;;;18.73;;
6937;SDS011;40040;42.706;23.372;2023-12-22T10:54:14;21.63;;;13.17;;
6937;SDS011;40040;42.706;23.372;2023-12-22T10:56:43;26.77;;;14.23;;
6937;SDS011;40040;42.706;23.372;2023-12-22T10:59:10;17.67;;;11.17;;
6937;SDS011;40040;42.706;23.372;2023-12-22T11:01:37;15.57;;;8.90;;
6937;SDS011;40040;42.706;23.372;2023-12-22T11:04:05;16.13;;;9.33;;
6937;SDS011;40040;42.706;23.372;2023-12-22T11:06:34;16.90;;;10.07;;
6937;SDS011;40040;42.706;23.372;2023-12-22T11:09:03;12.65;;;7.47;;
6937;SDS011;40040;42.706;23.372;2023-12-22T11:11:34;18.00;;;9.13;;
6937;SDS011;40040;42.706;23.372;2023-12-22T11:14:04;13.00;;;7.93;;
6937;SDS011;40040;42.706;23.372;2023-12-22T11:16:32;15.67;;;8.93;;
6937;SDS011;40040;42.706;23.372;2023-12-22T11:19:01;12.50;;;7.27;;
6937;SDS011;40040;42.706;23.372;2023-12-22T11:21:29;8.63;;;6.40;;
6937;SDS011;40040;42.706;23.372;2023-12-22T11:23:58;9.73;;;4.47;;
6937;SDS011;40040;42.706;23.372;2023-12-22T11:26:26;8.80;;;5.00;;
6937;SDS011;40040;42.706;23.372;2023-12-22T11:28:54;8.45;;;5.40;;
6937;SDS011;40040;42.706;23.372;2023-12-22T11:31:23;6.80;;;5.78;;
6937;SDS011;40040;42.706;23.372;2023-12-22T11:33:52;10.73;;;5.77;;
6937;SDS011;40040;42.706;23.372;2023-12-22T11:36:21;9.10;;;6.30;;
6937;SDS011;40040;42.706;23.372;2023-12-22T11:38:50;7.43;;;5.40;;
6937;SDS011;40040;42.706;23.372;2023-12-22T11:41:17;11.02;;;6.45;;
6937;SDS011;40040;42.706;23.372;2023-12-22T11:43:46;10.95;;;6.85;;
6937;SDS011;40040;42.706;23.372;2023-12-22T11:46:16;6.60;;;5.07;;
6937;SDS011;40040;42.706;23.372;2023-12-22T11:48:48;8.50;;;5.40;;
6937;SDS011;40040;42.706;23.372;2023-12-22T11:51:15;8.63;;;5.20;;
6937;SDS011;40040;42.706;23.372;2023-12-22T11:53:44;5.40;;;4.43;;
6937;SDS011;40040;42.706;23.372;2023-12-22T11:56:11;8.95;;;4.22;;
6937;SDS011;40040;42.706;23.372;2023-12-22T11:58:39;10.27;;;5.43;;
6937;SDS011;40040;42.706;23.372;2023-12-22T12:01:07;9.10;;;5.07;;
6937;SDS011;40040;42.706;23.372;2023-12-22T12:03:36;12.63;;;6.28;;
6937;SDS011;40040;42.706;23.372;2023-12-22T12:06:12;8.95;;;6.72;;
6937;SDS011;40040;42.706;23.372;2023-12-22T12:08:41;11.82;;;7.35;;
6937;SDS011;40040;42.706;23.372;2023-12-22T12:11:08;4.00;;;3.60;;
6937;SDS011;40040;42.706;23.372;2023-12-22T12:13:44;2.28;;;2.17;;
6937;SDS011;40040;42.706;23.372;2023-12-22T12:16:12;2.80;;;2.60;;
6937;SDS011;40040;42.706;23.372;2023-12-22T12:18:40;4.67;;;3.40;;
6937;SDS011;40040;42.706;23.372;2023-12-22T12:21:07;2.17;;;1.97;;
6937;SDS011;40040;42.706;23.372;2023-12-22T12:23:37;1.80;;;1.70;;
6937;SDS011;40040;42.706;23.372;2023-12-22T12:26:05;2.30;;;2.20;;
6937;SDS011;40040;42.706;23.372;2023-12-22T12:28:33;2.57;;;2.37;;
6937;SDS011;40040;42.706;23.372;2023-12-22T12:31:03;2.10;;;2.00;;
6937;SDS011;40040;42.706;23.372;2023-12-22T12:33:31;2.43;;;2.33;;
6937;SDS011;40040;42.706;23.372;2023-12-22T12:35:58;5.37;;;4.67;;
6937;SDS011;40040;42.706;23.372;2023-12-22T12:38:31;4.97;;;3.50;;
6937;SDS011;40040;42.706;23.372;2023-12-22T12:41:09;1.73;;;1.63;;
6937;SDS011;40040;42.706;23.372;2023-12-22T12:43:40;1.60;;;1.50;;
6937;SDS011;40040;42.706;23.372;2023-12-22T12:46:09;2.80;;;2.60;;
6937;SDS011;40040;42.706;23.372;2023-12-22T12:48:36;2.60;;;2.40;;
6937;SDS011;40040;42.706;23.372;2023-12-22T12:51:03;2.60;;;2.40;;
6937;SDS011;40040;42.706;23.372;2023-12-22T12:53:30;4.23;;;3.83;;
6937;SDS011;40040;42.706;23.372;2023-12-22T12:55:59;3.33;;;3.10;;
6937;SDS011;40040;42.706;23.372;2023-12-22T12:58:27;3.00;;;2.80;;
6937;SDS011;40040;42.706;23.372;2023-12-22T13:01:03;2.30;;;2.20;;
6937;SDS011;40040;42.706;23.372;2023-12-22T13:03:31;2.53;;;2.33;;
6937;SDS011;40040;42.706;23.372;2023-12-22T13:06:07;2.77;;;2.60;;
6937;SDS011;40040;42.706;23.372;2023-12-22T13:08:34;9.43;;;6.78;;
6937;SDS011;40040;42.706;23.372;2023-12-22T13:11:04;15.73;;;8.63;;
6937;SDS011;40040;42.706;23.372;2023-12-22T13:13:40;15.03;;;7.57;;
6937;SDS011;40040;42.706;23.372;2023-12-22T13:16:07;14.47;;;8.43;;
6937;SDS011;40040;42.706;23.372;2023-12-22T13:18:35;20.55;;;9.32;;
6937;SDS011;40040;42.706;23.372;2023-12-22T13:21:02;12.80;;;6.77;;
6937;SDS011;40040;42.706;23.372;2023-12-22T13:23:29;9.18;;;5.50;;
6937;SDS011;40040;42.706;23.372;2023-12-22T13:25:57;14.57;;;6.00;;
6937;SDS011;40040;42.706;23.372;2023-12-22T13:28:28;9.37;;;5.27;;
6937;SDS011;40040;42.706;23.372;2023-12-22T13:30:55;2.00;;;1.90;;
6937;SDS011;40040;42.706;23.372;2023-12-22T13:33:22;3.17;;;2.70;;
6937;SDS011;40040;42.706;23.372;2023-12-22T13:35:50;7.43;;;5.83;;
6937;SDS011;40040;42.706;23.372;2023-12-22T13:38:17;4.23;;;3.60;;
6937;SDS011;40040;42.706;23.372;2023-12-22T13:40:45;5.27;;;3.33;;
6937;SDS011;40040;42.706;23.372;2023-12-22T13:43:12;6.83;;;4.70;;
6937;SDS011;40040;42.706;23.372;2023-12-22T13:45:40;4.10;;;3.70;;
6937;SDS011;40040;42.706;23.372;2023-12-22T13:48:07;4.03;;;3.60;;
6937;SDS011;40040;42.706;23.372;2023-12-22T13:50:35;2.90;;;2.70;;
6937;SDS011;40040;42.706;23.372;2023-12-22T13:53:09;6.03;;;3.57;;
6937;SDS011;40040;42.706;23.372;2023-12-22T13:55:36;6.67;;;4.10;;
6937;SDS011;40040;42.706;23.372;2023-12-22T13:58:04;4.53;;;2.83;;
6937;SDS011;40040;42.706;23.372;2023-12-22T14:00:31;9.40;;;3.10;;
6937;SDS011;40040;42.706;23.372;2023-12-22T14:03:00;4.17;;;2.47;;
6937;SDS011;40040;42.706;23.372;2023-12-22T14:05:28;2.80;;;2.50;;
6937;SDS011;40040;42.706;23.372;2023-12-22T14:07:55;12.53;;;5.03;;
6937;SDS011;40040;42.706;23.372;2023-12-22T14:10:21;14.33;;;5.50;;
6937;SDS011;40040;42.706;23.372;2023-12-22T14:12:48;8.93;;;5.13;;
6937;SDS011;40040;42.706;23.372;2023-12-22T14:15:16;6.57;;;4.83;;
6937;SDS011;40040;42.706;23.372;2023-12-22T14:17:42;3.10;;;2.60;;
6937;SDS011;40040;42.706;23.372;2023-12-22T14:20:11;16.33;;;8.27;;
6937;SDS011;40040;42.706;23.372;2023-12-22T14:22:37;15.23;;;7.67;;
6937;SDS011;40040;42.706;23.372;2023-12-22T14:25:05;6.53;;;4.50;;
6937;SDS011;40040;42.706;23.372;2023-12-22T14:27:32;5.30;;;3.67;;